Nearby METAR Reports

 

KT74 - Taylor Muni, Texas, USA
Distance from station: W 2mi, 3km
Updated: Thu, 18-Jul-2024 12:15pm CDT
Partly cloudy
Partly cloudy
 Wind from WSW
Wind: WSW 9 mph, 15 km/h
Temperature: 84°F, 29°C
Heat Index: 89°F, 32°C
Dew Point: 72°F, 22°C
Humidity: 66%
Barometer: 30.10 inHg, 1019.3 hPa
Clouds: Partly cloudy
Visibility: 10 miles, 16 km
Cloud details: Partly cloudy 2300 ft
2024/07/18 17:15 KT74 181715Z AUTO 25008KT 10SM SCT023 29/22 A3010 RMK AO2 T02950216
KEDC - Austin Exec, Texas, USA
Distance from station: SW 16mi, 25km
Updated: Thu, 18-Jul-2024 12:15pm CDT
Clear
Clear
 Wind from W
Wind: W 3 mph, 6 km/h
Temperature: 82°F, 28°C
Heat Index: 87°F, 31°C
Dew Point: 73°F, 23°C
Humidity: 74%
Barometer: 30.09 inHg, 1019 hPa
Clouds: Clear
Visibility: 9 miles, 14 km
2024/07/18 17:15 KEDC 181715Z AUTO 26003KT 9SM CLR 28/23 A3009 RMK AO2
 
KGTU - Georgetown, Texas, USA
Distance from station: WNW 17mi, 28km
Updated: Thu, 18-Jul-2024 11:56am CDT
Mostly cloudy
Mostly cloudy
 Wind from W
Wind: W 9 mph, 15 km/h
Temperature: 82°F, 28°C
Heat Index: 86°F, 30°C
Dew Point: 70°F, 21°C
Humidity: 66%
Barometer: 30.13 inHg, 1020.3 hPa
Clouds: Mostly cloudy
Visibility: 10 miles, 16 km
Cloud details: Partly cloudy 1900 ft
Mostly cloudy 6000 ft
2024/07/18 16:56 KGTU 181656Z 27008KT 10SM SCT019 BKN060 28/21 A3013 RMK AO2 SLP197 T02830206
KATT - Austin/Mabry, Texas, USA
Distance from station: SW 28mi, 45km
Updated: Thu, 18-Jul-2024 11:51am CDT
Partly cloudy
Partly cloudy
 Wind from WSW
Wind: WSW 5 mph, 7 km/h
Temperature: 82°F, 28°C
Heat Index: 87°F, 31°C
Dew Point: 73°F, 23°C
Humidity: 74%
Barometer: 30.13 inHg, 1020.3 hPa
Clouds: Partly cloudy
Visibility: 10 miles, 16 km
Cloud details: Few Clouds 3800 ft
Partly cloudy 5500 ft
2024/07/18 16:51 KATT 181651Z AUTO 24004KT 10SM FEW038 SCT055 28/23 A3013 RMK AO2 SLP190 T02830233
 
KAUS - Austin, Texas, USA
Distance from station: SSW 32mi, 51km
Updated: Thu, 18-Jul-2024 11:53am CDT
Mostly cloudy
Mostly cloudy
 Wind from WSW
Wind: WSW 7 mph, 11 km/h
Temperature: 75°F, 24°C
Dew Point: 73°F, 23°C
Humidity: 94%
Barometer: 30.12 inHg, 1020 hPa
Clouds: Mostly cloudy
Visibility: 10 miles, 16 km
Cloud details: Few Clouds 3500 ft
Partly cloudy 7000 ft
Mostly cloudy 12000 ft
2024/07/18 16:53 KAUS 181653Z 25006KT 10SM FEW035 SCT070 BKN120 24/23 A3012 RMK AO2 RAE30 SLP188 P0000 T02440233
KRYW - Lago Vista, Texas, USA
Distance from station: W 33mi, 54km
Updated: Thu, 18-Jul-2024 11:55am CDT
Mostly cloudy
Mostly cloudy
 Wind from WSW
Wind: WSW 9 mph, 15 km/h
Temperature: 81°F, 27°C
Heat Index: 86°F, 30°C
Dew Point: 73°F, 23°C
Humidity: 79%
Barometer: 30.18 inHg, 1022 hPa
Clouds: Mostly cloudy
Visibility: 10 miles, 16 km
Cloud details: Partly cloudy 1600 ft
Mostly cloudy 6000 ft
Mostly cloudy 7000 ft
2024/07/18 16:55 KRYW 181655Z AUTO 25008KT 10SM SCT016 BKN060 BKN070 27/23 A3018 RMK AO2 T02660225
 
KILE - Killeen Muni, Texas, USA
Distance from station: NNW 37mi, 59km
Updated: Thu, 18-Jul-2024 11:56am CDT
Few Clouds
Few Clouds
 Wind from varies
Wind: varies 3 mph, 6 km/h
Temperature: 86°F, 30°C
Heat Index: 92°F, 33°C
Dew Point: 72°F, 22°C
Humidity: 62%
Barometer: 30.12 inHg, 1020 hPa
Clouds: Few Clouds
Visibility: 10 miles, 16 km
Cloud details: Few Clouds 3200 ft
2024/07/18 16:56 KILE 181656Z AUTO VRB03KT 10SM FEW032 30/22 A3012 RMK AO2 SLP186 P0001 T03000217
KTPL - Temple/Miller, Texas, USA
Distance from station: N 38mi, 61km
Updated: Thu, 18-Jul-2024 11:51am CDT
Partly cloudy
Partly cloudy
 Wind from varies
Wind: varies 6 mph, 9 km/h
Temperature: 86°F, 30°C
Heat Index: 92°F, 33°C
Dew Point: 72°F, 22°C
Humidity: 62%
Barometer: 30.10 inHg, 1019.3 hPa
Clouds: Partly cloudy
Visibility: 10 miles, 16 km
Cloud details: Partly cloudy 3000 ft
2024/07/18 16:51 KTPL 181651Z AUTO VRB05KT 10SM SCT030 30/22 A3010 RMK AO2 SLP183 T03000222
 
KGYB - Giddings-Lee, Texas, USA
Distance from station: SE 39mi, 62km
Updated: Thu, 18-Jul-2024 11:55am CDT
Clear
Clear
 Wind from WSW
Wind: WSW 8 mph, 13 km/h
Temperature: 79°F, 26°C
Dew Point: 73°F, 23°C
Humidity: 84%
Barometer: 30.14 inHg, 1020.7 hPa
Clouds: Clear
Visibility: 10 miles, 16 km
2024/07/18 16:55 KGYB 181655Z AUTO 25007KT 10SM CLR 26/23 A3014 RMK AO2 T02610231
KHLR - Ft Hood/Killeen, Texas, USA
Distance from station: NNW 42mi, 67km
Updated: Thu, 18-Jul-2024 11:55am CDT
Partly cloudy
Partly cloudy
 Wind from calm
Wind: Calm
Temperature: 86°F, 30°C
Heat Index: 92°F, 33°C
Dew Point: 72°F, 22°C
Humidity: 62%
Barometer: 30.10 inHg, 1019.3 hPa
Clouds: Partly cloudy
Visibility: 10 miles, 16 km
Cloud details: Partly cloudy 3200 ft
2024/07/18 16:55 KHLR 181655Z AUTO 00000KT 10SM SCT032 30/22 A3010 RMK AO2 SLP181 T03030222